Time,TemperatureF,DewpointF,PressureIn,WindDirection,WindDirectionDegrees,WindSpeedMPH,WindSpeedGustMPH,Humidity,HourlyPrecipIn,Conditions,Clouds,dailyrainin,SoftwareType,DateUTC
2013-04-26 00:07:00,59.7,59.0,30.26,ENE,75,2.0,7.0,98,0.00,,,0.00,weatherlink.com 1.10,2013-04-26 04:07:00,
2013-04-26 00:22:00,59.5,59.0,30.26,East,85,0.0,5.0,98,0.00,,,0.00,weatherlink.com 1.10,2013-04-26 04:22:00,
2013-04-26 00:37:00,59.3,59.0,30.26,SE,131,1.0,7.0,98,0.00,,,0.00,weatherlink.com 1.10,2013-04-26 04:37:00,
2013-04-26 00:52:00,58.8,58.0,30.26,East,80,0.0,2.0,98,0.00,,,0.00,weatherlink.com 1.10,2013-04-26 04:52:00,
2013-04-26 01:07:00,58.5,58.0,30.25,East,96,0.0,1.0,98,0.00,,,0.00,weatherlink.com 1.10,2013-04-26 05:07:00,
2013-04-26 01:22:00,57.9,57.0,30.25,SE,135,0.0,0.0,98,0.00,,,0.00,weatherlink.com 1.10,2013-04-26 05:22:00,
2013-04-26 01:37:00,57.3,57.0,30.25,SE,135,0.0,0.0,98,0.00,,,0.00,weatherlink.com 1.10,2013-04-26 05:37:00,
2013-04-26 01:53:00,56.5,56.0,30.25,SE,135,0.0,0.0,98,0.00,,,0.00,weatherlink.com 1.10,2013-04-26 05:53:00,
2013-04-26 02:08:00,55.9,55.0,30.25,SE,135,0.0,0.0,98,0.00,,,0.00,weatherlink.com 1.10,2013-04-26 06:08:00,
2013-04-26 02:23:00,55.4,55.0,30.25,SE,135,0.0,0.0,98,0.00,,,0.00,weatherlink.com 1.10,2013-04-26 06:23:00,
2013-04-26 02:38:00,55.0,55.0,30.26,SE,136,0.0,0.0,98,0.00,,,0.00,weatherlink.com 1.10,2013-04-26 06:38:00,
2013-04-26 02:53:00,54.6,54.0,30.26,SE,135,0.0,0.0,98,0.00,,,0.00,weatherlink.com 1.10,2013-04-26 06:53:00,
2013-04-26 03:08:00,54.3,54.0,30.26,SE,135,0.0,1.0,98,0.00,,,0.00,weatherlink.com 1.10,2013-04-26 07:08:00,
2013-04-26 03:23:00,54.1,54.0,30.26,SW,218,0.0,1.0,99,0.00,,,0.00,weatherlink.com 1.10,2013-04-26 07:23:00,
2013-04-26 03:38:00,54.3,54.0,30.25,SSW,213,0.0,1.0,99,0.00,,,0.00,weatherlink.com 1.10,2013-04-26 07:38:00,
2013-04-26 03:53:00,54.6,54.0,30.26,SSW,212,0.0,1.0,99,0.00,,,0.00,weatherlink.com 1.10,2013-04-26 07:53:00,
2013-04-26 04:08:00,54.9,55.0,30.26,WSW,256,0.0,1.0,99,0.00,,,0.00,weatherlink.com 1.10,2013-04-26 08:08:00,
2013-04-26 04:23:00,54.9,55.0,30.27,SSW,195,0.0,1.0,99,0.00,,,0.00,weatherlink.com 1.10,2013-04-26 08:23:00,
2013-04-26 04:38:00,54.6,54.0,30.27,SSW,195,0.0,0.0,99,0.01,,,0.01,weatherlink.com 1.10,2013-04-26 08:38:00,
2013-04-26 04:53:00,54.2,54.0,30.27,WSW,239,0.0,1.0,99,0.01,,,0.01,weatherlink.com 1.10,2013-04-26 08:53:00,
2013-04-26 05:08:00,53.9,54.0,30.28,SE,139,0.0,1.0,99,0.01,,,0.01,weatherlink.com 1.10,2013-04-26 09:08:00,
2013-04-26 05:23:00,53.3,53.0,30.28,SE,139,0.0,0.0,99,0.01,,,0.01,weatherlink.com 1.10,2013-04-26 09:23:00,
2013-04-26 05:38:00,52.7,53.0,30.28,SE,139,0.0,0.0,99,0.00,,,0.01,weatherlink.com 1.10,2013-04-26 09:38:00,
2013-04-26 05:53:00,52.5,52.0,30.28,SE,139,0.0,0.0,99,0.00,,,0.01,weatherlink.com 1.10,2013-04-26 09:53:00,
2013-04-26 06:08:00,52.3,52.0,30.29,SE,139,0.0,1.0,99,0.00,,,0.01,weatherlink.com 1.10,2013-04-26 10:08:00,
2013-04-26 06:23:00,52.1,52.0,30.29,SE,140,0.0,0.0,99,0.00,,,0.01,weatherlink.com 1.10,2013-04-26 10:23:00,
2013-04-26 06:38:00,52.0,52.0,30.30,SE,144,0.0,1.0,99,0.00,,,0.01,weatherlink.com 1.10,2013-04-26 10:38:00,
2013-04-26 06:53:00,51.8,52.0,30.31,SE,144,0.0,0.0,99,0.00,,,0.01,weatherlink.com 1.10,2013-04-26 10:53:00,
2013-04-26 07:08:00,52.2,52.0,30.32,SE,144,0.0,1.0,99,0.00,,,0.01,weatherlink.com 1.10,2013-04-26 11:08:00,
2013-04-26 07:23:00,52.9,53.0,30.33,SE,144,0.0,1.0,99,0.00,,,0.01,weatherlink.com 1.10,2013-04-26 11:23:00,
2013-04-26 07:38:00,54.0,54.0,30.33,West,270,0.0,1.0,99,0.00,,,0.01,weatherlink.com 1.10,2013-04-26 11:38:00,
2013-04-26 07:53:00,55.2,55.0,30.34,West,270,0.0,1.0,99,0.00,,,0.01,weatherlink.com 1.10,2013-04-26 11:53:00,
2013-04-26 08:08:00,56.5,56.0,30.34,East,99,0.0,5.0,99,0.00,,,0.01,weatherlink.com 1.10,2013-04-26 12:08:00,
2013-04-26 08:23:00,58.5,58.0,30.35,East,100,1.0,6.0,99,0.00,,,0.01,weatherlink.com 1.10,2013-04-26 12:23:00,
2013-04-26 08:38:00,60.1,60.0,30.36,ESE,103,3.0,5.0,99,0.00,,,0.01,weatherlink.com 1.10,2013-04-26 12:38:00,
2013-04-26 08:53:00,60.7,60.0,30.37,East,84,2.0,5.0,97,0.00,,,0.01,weatherlink.com 1.10,2013-04-26 12:53:00,
2013-04-26 09:09:00,61.9,60.0,30.37,East,94,2.0,6.0,93,0.00,,,0.01,weatherlink.com 1.10,2013-04-26 13:09:00,
2013-04-26 09:24:00,62.5,59.0,30.37,SW,214,0.0,8.0,88,0.00,,,0.01,weatherlink.com 1.10,2013-04-26 13:24:00,
2013-04-26 09:39:00,63.4,59.0,30.38,SE,127,1.0,6.0,85,0.00,,,0.01,weatherlink.com 1.10,2013-04-26 13:39:00,
2013-04-26 09:54:00,63.6,58.0,30.38,East,98,2.0,10.0,83,0.00,,,0.01,weatherlink.com 1.10,2013-04-26 13:54:00,
2013-04-26 10:09:00,64.3,58.0,30.39,ENE,72,4.0,7.0,80,0.00,,,0.01,weatherlink.com 1.10,2013-04-26 14:09:00,
2013-04-26 10:24:00,64.0,57.0,30.40,ENE,78,4.0,9.0,78,0.00,,,0.01,weatherlink.com 1.10,2013-04-26 14:24:00,
2013-04-26 10:39:00,64.3,57.0,30.40,East,94,4.0,12.0,77,0.00,,,0.01,weatherlink.com 1.10,2013-04-26 14:39:00,
2013-04-26 10:54:00,65.1,57.0,30.41,East,82,4.0,8.0,74,0.00,,,0.01,weatherlink.com 1.10,2013-04-26 14:54:00,
2013-04-26 11:09:00,65.4,57.0,30.41,East,91,5.0,7.0,74,0.00,,,0.01,weatherlink.com 1.10,2013-04-26 15:09:00,
2013-04-26 11:24:00,65.8,56.0,30.41,ENE,77,11.0,12.0,71,0.00,,,0.01,weatherlink.com 1.10,2013-04-26 15:24:00,
2013-04-26 11:39:00,65.0,55.0,30.41,East,97,9.0,12.0,70,0.00,,,0.01,weatherlink.com 1.10,2013-04-26 15:39:00,
2013-04-26 11:54:00,65.8,57.0,30.41,SE,127,5.0,9.0,72,0.00,,,0.01,weatherlink.com 1.10,2013-04-26 15:54:00,
2013-04-26 12:09:00,66.6,56.0,30.41,East,94,5.0,7.0,68,0.00,,,0.01,weatherlink.com 1.10,2013-04-26 16:09:00,
2013-04-26 12:24:00,65.4,55.0,30.41,SE,128,5.0,12.0,70,0.00,,,0.01,weatherlink.com 1.10,2013-04-26 16:24:00,
2013-04-26 12:39:00,65.2,54.0,30.40,East,82,10.0,15.0,67,0.00,,,0.01,weatherlink.com 1.10,2013-04-26 16:39:00,
2013-04-26 12:54:00,65.5,55.0,30.40,East,92,10.0,14.0,68,0.00,,,0.01,weatherlink.com 1.10,2013-04-26 16:54:00,
2013-04-26 13:09:00,65.4,54.0,30.39,NW,309,3.0,12.0,66,0.00,,,0.01,weatherlink.com 1.10,2013-04-26 17:09:00,
2013-04-26 13:24:00,65.7,55.0,30.38,ESE,102,12.0,12.0,68,0.00,,,0.01,weatherlink.com 1.10,2013-04-26 17:24:00,
2013-04-26 13:39:00,65.5,53.0,30.38,ESE,104,4.0,15.0,64,0.00,,,0.01,weatherlink.com 1.10,2013-04-26 17:39:00,
2013-04-26 13:54:00,66.1,54.0,30.39,SW,222,2.0,13.0,66,0.00,,,0.01,weatherlink.com 1.10,2013-04-26 17:54:00,
2013-04-26 14:09:00,66.1,54.0,30.38,NW,314,2.0,15.0,65,0.00,,,0.01,weatherlink.com 1.10,2013-04-26 18:09:00,
2013-04-26 14:24:00,65.8,54.0,30.38,WNW,298,1.0,12.0,65,0.00,,,0.01,weatherlink.com 1.10,2013-04-26 18:24:00,
2013-04-26 14:39:00,66.6,53.0,30.38,East,98,6.0,11.0,61,0.00,,,0.01,weatherlink.com 1.10,2013-04-26 18:39:00,
2013-04-26 14:54:00,66.7,50.0,30.38,East,96,3.0,16.0,56,0.00,,,0.01,weatherlink.com 1.10,2013-04-26 18:54:00,
2013-04-26 15:09:00,66.9,51.0,30.38,ESE,110,12.0,13.0,56,0.00,,,0.01,weatherlink.com 1.10,2013-04-26 19:09:00,
2013-04-26 15:24:00,67.7,48.0,30.38,East,101,4.0,12.0,50,0.00,,,0.01,weatherlink.com 1.10,2013-04-26 19:24:00,
2013-04-26 15:39:00,67.4,51.0,30.37,ENE,72,3.0,12.0,55,0.00,,,0.01,weatherlink.com 1.10,2013-04-26 19:39:00,
2013-04-26 15:54:00,67.3,48.0,30.37,ESE,102,5.0,12.0,50,0.00,,,0.01,weatherlink.com 1.10,2013-04-26 19:54:00,
2013-04-26 16:09:00,67.3,50.0,30.36,NE,47,2.0,11.0,55,0.00,,,0.01,weatherlink.com 1.10,2013-04-26 20:09:00,
2013-04-26 16:24:00,67.1,50.0,30.36,ENE,74,3.0,11.0,54,0.00,,,0.01,weatherlink.com 1.10,2013-04-26 20:24:00,
2013-04-26 16:39:00,65.9,50.0,30.35,ENE,65,4.0,11.0,57,0.00,,,0.01,weatherlink.com 1.10,2013-04-26 20:39:00,
2013-04-26 16:54:00,65.7,49.0,30.35,East,80,9.0,13.0,56,0.00,,,0.01,weatherlink.com 1.10,2013-04-26 20:54:00,
2013-04-26 17:09:00,65.7,49.0,30.35,ENE,72,5.0,14.0,56,0.00,,,0.01,weatherlink.com 1.10,2013-04-26 21:09:00,
2013-04-26 17:24:00,65.9,50.0,30.35,SSE,153,5.0,8.0,57,0.00,,,0.01,weatherlink.com 1.10,2013-04-26 21:24:00,
2013-04-26 17:39:00,65.4,48.0,30.35,East,91,8.0,13.0,54,0.00,,,0.01,weatherlink.com 1.10,2013-04-26 21:39:00,
2013-04-26 17:54:00,65.2,50.0,30.35,ENE,78,2.0,11.0,58,0.00,,,0.01,weatherlink.com 1.10,2013-04-26 21:54:00,
2013-04-26 18:09:00,64.6,50.0,30.35,East,85,4.0,11.0,59,0.00,,,0.01,weatherlink.com 1.10,2013-04-26 22:09:00,
2013-04-26 18:24:00,64.1,52.0,30.34,ENE,72,2.0,9.0,64,0.00,,,0.01,weatherlink.com 1.10,2013-04-26 22:24:00,
2013-04-26 18:39:00,63.8,53.0,30.34,East,82,7.0,7.0,68,0.00,,,0.01,weatherlink.com 1.10,2013-04-26 22:39:00,
2013-04-26 18:54:00,63.4,53.0,30.34,East,88,3.0,7.0,68,0.00,,,0.01,weatherlink.com 1.10,2013-04-26 22:54:00,
2013-04-26 19:09:00,63.0,53.0,30.34,East,79,2.0,5.0,71,0.00,,,0.01,weatherlink.com 1.10,2013-04-26 23:09:00,
2013-04-26 19:24:00,62.5,53.0,30.35,East,80,3.0,4.0,72,0.00,,,0.01,weatherlink.com 1.10,2013-04-26 23:24:00,
2013-04-26 19:39:00,62.0,53.0,30.36,NE,43,0.0,3.0,73,0.00,,,0.01,weatherlink.com 1.10,2013-04-26 23:39:00,
2013-04-26 20:09:00,59.8,53.0,30.36,East,86,0.0,1.0,79,0.00,,,0.01,weatherlink.com 1.10,2013-04-27 00:09:00,
2013-04-26 20:24:00,58.1,53.0,30.37,East,84,0.0,0.0,84,0.00,,,0.01,weatherlink.com 1.10,2013-04-27 00:24:00,
2013-04-26 20:39:00,56.8,53.0,30.38,East,85,0.0,0.0,87,0.00,,,0.01,weatherlink.com 1.10,2013-04-27 00:39:00,
2013-04-26 20:54:00,55.7,53.0,30.38,East,85,0.0,0.0,89,0.00,,,0.01,weatherlink.com 1.10,2013-04-27 00:54:00,
2013-04-26 21:10:00,54.6,52.0,30.38,East,85,0.0,0.0,90,0.00,,,0.01,weatherlink.com 1.10,2013-04-27 01:10:00,
2013-04-26 21:25:00,54.0,52.0,30.39,East,85,0.0,0.0,92,0.00,,,0.01,weatherlink.com 1.10,2013-04-27 01:25:00,
2013-04-26 21:40:00,53.7,52.0,30.39,East,84,0.0,0.0,93,0.00,,,0.01,weatherlink.com 1.10,2013-04-27 01:40:00,
2013-04-26 21:55:00,53.1,52.0,30.39,East,85,0.0,0.0,94,0.00,,,0.01,weatherlink.com 1.10,2013-04-27 01:55:00,
2013-04-26 22:10:00,52.5,51.0,30.38,East,86,0.0,0.0,94,0.00,,,0.01,weatherlink.com 1.10,2013-04-27 02:10:00,
2013-04-26 22:25:00,52.6,51.0,30.39,East,86,0.0,1.0,95,0.00,,,0.01,weatherlink.com 1.10,2013-04-27 02:25:00,
2013-04-26 22:40:00,52.5,51.0,30.39,East,86,0.0,0.0,95,0.00,,,0.01,weatherlink.com 1.10,2013-04-27 02:40:00,
2013-04-26 22:55:00,52.2,51.0,30.39,East,86,0.0,0.0,96,0.00,,,0.01,weatherlink.com 1.10,2013-04-27 02:55:00,
2013-04-26 23:10:00,51.9,51.0,30.37,East,86,0.0,0.0,96,0.00,,,0.01,weatherlink.com 1.10,2013-04-27 03:10:00,
2013-04-26 23:25:00,51.6,51.0,30.36,East,86,0.0,0.0,96,0.00,,,0.01,weatherlink.com 1.10,2013-04-27 03:25:00,
2013-04-26 23:40:00,51.6,51.0,30.36,East,86,0.0,0.0,96,0.00,,,0.01,weatherlink.com 1.10,2013-04-27 03:40:00,
2013-04-26 23:55:00,51.7,51.0,30.35,East,86,0.0,0.0,97,0.00,,,0.01,weatherlink.com 1.10,2013-04-27 03:55:00,